アデレード の空港の天気 - METARとTAF

アデレード空港 ( YPAD / ADL ) - オーストラリア 南オーストラリア州アデレード
飛行場実況気象(Metar)
観測時間10/16 03:30 ACDT (10/15 17:00 UTC)
風向・風速南南西 3m/s
視程10km以上
天気現象
少しの雲 雲底高度 700m
全天の8割程度の雲 雲底高度 2260m
全天を覆う雲 雲底高度 2560m
気温14℃
湿度88%
気圧1012hPa
METARYPAD 151700Z 21005KT 9999 FEW023 BKN074 OVC084 14/12 Q1012 TEMPO 1700/2000 5000 RA BKN012
過去の天気等 Google飛行場航空写真 Wunderground天気予報

過去48時間のMETAR

飛行場予報(TAF)
発表時間: 10/15 22:07 ACDT (10/15 11:37 UTC)
予報対象時間: 15日22時 ACDT ~ 17日4時 ACDT
風向・風速南東 4m/s
視程10km以上
天気現象弱い雨
全天の4割程度の雲 雲底高度 610m
16日2時 ACDT から
風向・風速南西 3m/s
視程10km以上
天気現象弱い雨
全天の4割程度の雲 雲底高度 300m
全天の4割程度の雲 雲底高度 610m
全天の8割程度の雲 雲底高度 910m
16日12時 ACDT から
風向・風速西南西 8m/s
視程10km以上
天気現象弱いしゅう雨
全天の4割程度の雲 雲底高度 910m
16日2時 ACDT ~ 16日9時 ACDT に一時的に
視程5000m
天気現象
全天の8割程度の雲 雲底高度 370m
TAF YPAD 151137Z 1512/1618 14007KT 9999 -RA SCT020
FM151600 22006KT 9999 -RA SCT010 SCT020 BKN030
FM160200 25016KT 9999 -SHRA SCT030
TEMPO 1516/1523 5000 RA BKN012 INTER 1523/1602 5000 SHRA BKN020 INTER 1609/1618 5000 SHRA BKN025
PROB30 INTER 1512/1521 5000 TSRA SCT050 SCT080CB